Terminal Aerodrome Forecast
Issued by NWS Paducah, KY

Home | Current Version | Previous Version | Text Only | Print | Product List | Glossary On
Versions: 1 2 3 4 5 6 7 8 9 10 11 12 13 14 15 16 17 18 19 20
439
FTUS43 KPAH 240520
TAFEVV
TAF
KEVV 240520Z 2406/2506 VRB03KT P6SM OVC025
     FM241000 36005KT P6SM VCSH OVC010
     FM241400 35005KT 6SM BR VCSH OVC008
     FM241600 35010KT P6SM OVC010
     FM242300 34005KT P6SM OVC020=

USA.gov is the U.S. government's official web portal to all federal, state and local government web resources and services.